Asheville, North Carolina
Current Conditions -  °F | °C
As of 2:54 AM on Sunday 23 Nov 2014 (Local Time) from KAVL Reporting Station
Overcast Overcast  
Wind Chill: 46°   Ceiling: 2700
Heat Index: 46°   Visibility: 10mi
Dew Point: 22°   Wind: 3mph
Humidity: 39%   Direction: 130°SE
Pressure: 30.24"   Gusts: NA
Location:  35.6°N, 82.55°W
Report Text: KAVL 230754Z AUTO 13003KT 10SM OVC027 08/M06 A3024 RMK AO2 SLP232 T00781056
Loading
Personal Weather Stations






























Interactive Weather Map New forecast layout! Learn more

10-Day Weather Forecast

Advertisements
Track Severe Weather on mobile